Time;durP1;ratioP1;P1;durP2;ratioP2;P2;SDS_P1;SDS_P2;PMS_P1;PMS_P2;Temp;Humidity;BMP_temperature;BMP_pressure;BME280_temperature;BME280_humidity;BME280_pressure;Samples;Min_cycle;Max_cycle;Signal;HPM_P1;HPM_P2
2021/12/22 00:01:49;;;;;;;37.10;19.63;;;;;;;;;;5094693;28;20201;-67
2021/12/22 00:04:16;;;;;;;29.60;18.88;;;;;;;;;;5094631;28;20648;-67
2021/12/22 00:06:44;;;;;;;34.90;17.45;;;;;;;;;;5093986;28;20204;-67
2021/12/22 00:09:11;;;;;;;29.05;18.40;;;;;;;;;;5093929;28;20201;-67
2021/12/22 00:11:38;;;;;;;29.80;15.95;;;;;;;;;;5093801;28;20252;-66
2021/12/22 00:14:05;;;;;;;32.95;16.35;;;;;;;;;;5094001;28;20612;-66
2021/12/22 00:16:34;;;;;;;40.92;17.35;;;;;;;;;;5094400;28;20257;-66
2021/12/22 00:19:01;;;;;;;39.17;18.63;;;;;;;;;;5094171;28;20285;-68
2021/12/22 00:21:28;;;;;;;31.52;17.02;;;;;;;;;;5093768;28;20708;-67
2021/12/22 00:23:56;;;;;;;34.63;17.73;;;;;;;;;;5094047;28;20193;-66
2021/12/22 00:26:23;;;;;;;31.20;17.67;;;;;;;;;;5093647;28;20233;-66
2021/12/22 00:28:51;;;;;;;34.17;18.25;;;;;;;;;;5093931;28;20190;-66
2021/12/22 00:31:20;;;;;;;43.03;17.63;;;;;;;;;;5093871;28;20201;-66
2021/12/22 00:33:51;;;;;;;33.17;17.42;;;;;;;;;;5093967;28;20247;-67
2021/12/22 00:36:19;;;;;;;26.20;16.88;;;;;;;;;;5094760;28;20182;-67
2021/12/22 00:38:47;;;;;;;29.67;17.15;;;;;;;;;;5093782;28;20246;-67
2021/12/22 00:41:14;;;;;;;43.92;16.55;;;;;;;;;;5093530;28;20230;-67
2021/12/22 00:43:41;;;;;;;42.60;16.20;;;;;;;;;;5093587;28;20296;-66
2021/12/22 00:46:12;;;;;;;29.02;16.23;;;;;;;;;;5093721;28;20250;-66
2021/12/22 00:48:39;;;;;;;46.60;16.08;;;;;;;;;;5093820;28;20189;-66
2021/12/22 00:51:08;;;;;;;24.38;15.27;;;;;;;;;;5093732;28;20254;-67
2021/12/22 00:53:35;;;;;;;25.55;15.38;;;;;;;;;;5093898;28;20305;-67
2021/12/22 00:56:03;;;;;;;25.95;15.10;;;;;;;;;;5093598;28;20283;-68
2021/12/22 00:58:30;;;;;;;32.28;14.82;;;;;;;;;;5093301;28;20220;-67
2021/12/22 01:00:57;;;;;;;28.52;15.98;;;;;;;;;;5093686;28;20201;-67
2021/12/22 01:03:25;;;;;;;36.90;17.30;;;;;;;;;;5093784;28;20200;-67
2021/12/22 01:05:52;;;;;;;31.52;17.85;;;;;;;;;;5093607;28;20228;-67
2021/12/22 01:08:22;;;;;;;29.75;16.25;;;;;;;;;;5093770;28;20236;-67
2021/12/22 01:10:49;;;;;;;34.72;16.75;;;;;;;;;;5093822;28;20196;-67
2021/12/22 01:13:16;;;;;;;27.55;16.42;;;;;;;;;;5099213;28;20304;-67
2021/12/22 01:15:43;;;;;;;25.00;15.40;;;;;;;;;;5097760;28;20279;-66
2021/12/22 01:18:14;;;;;;;32.03;17.65;;;;;;;;;;5097756;28;20228;-68
2021/12/22 01:20:57;;;;;;;47.30;17.45;;;;;;;;;;5097693;28;20181;-68
2021/12/22 01:23:25;;;;;;;37.78;16.40;;;;;;;;;;5099417;28;20193;-67
2021/12/22 01:25:53;;;;;;;30.45;18.25;;;;;;;;;;5097466;28;20193;-68
2021/12/22 01:28:22;;;;;;;34.55;18.20;;;;;;;;;;5097268;28;20668;-68
2021/12/22 01:30:50;;;;;;;40.13;15.70;;;;;;;;;;5097443;28;20194;-68
2021/12/22 01:33:18;;;;;;;35.10;16.83;;;;;;;;;;5097133;28;20229;-67
2021/12/22 01:35:46;;;;;;;39.65;18.63;;;;;;;;;;5096953;28;20743;-67
2021/12/22 01:38:13;;;;;;;25.75;15.57;;;;;;;;;;5097257;28;20534;-68
2021/12/22 01:40:43;;;;;;;29.33;18.30;;;;;;;;;;5097584;28;20220;-66
2021/12/22 01:43:11;;;;;;;35.90;18.27;;;;;;;;;;5098728;28;20229;-66
2021/12/22 01:51:26;;;;;;;27.02;17.42;;;;;;;;;;5096735;28;20243;-67
2021/12/22 01:53:53;;;;;;;31.92;17.23;;;;;;;;;;5096730;28;20213;-67
2021/12/22 01:56:25;;;;;;;28.17;15.95;;;;;;;;;;5097098;28;20550;-67
2021/12/22 01:58:53;;;;;;;32.15;17.13;;;;;;;;;;5096991;28;20213;-68
2021/12/22 02:01:21;;;;;;;33.63;18.48;;;;;;;;;;5096873;28;20281;-66
2021/12/22 02:03:49;;;;;;;36.22;18.33;;;;;;;;;;5096664;28;20233;-67
2021/12/22 02:06:18;;;;;;;35.72;18.33;;;;;;;;;;5096303;28;20240;-67
2021/12/22 02:08:46;;;;;;;33.20;18.55;;;;;;;;;;5096222;28;20285;-67
2021/12/22 02:11:14;;;;;;;34.53;18.63;;;;;;;;;;5096804;28;20197;-67
2021/12/22 02:13:47;;;;;;;103.30;22.55;;;;;;;;;;5096373;28;20213;-66
2021/12/22 02:16:15;;;;;;;48.80;17.80;;;;;;;;;;5096482;28;20262;-66
2021/12/22 02:18:45;;;;;;;29.90;17.55;;;;;;;;;;5094874;28;20284;-67
2021/12/22 02:21:14;;;;;;;24.90;16.10;;;;;;;;;;5094869;28;20202;-67
2021/12/22 02:23:42;;;;;;;27.40;16.00;;;;;;;;;;5094708;28;20194;-67
2021/12/22 02:26:13;;;;;;;30.08;17.75;;;;;;;;;;5094799;28;20190;-66
2021/12/22 02:28:45;;;;;;;25.70;16.42;;;;;;;;;;5095225;28;20181;-67
2021/12/22 02:31:15;;;;;;;31.85;17.35;;;;;;;;;;5095027;28;20178;-66
2021/12/22 02:33:44;;;;;;;32.80;17.95;;;;;;;;;;5094842;28;20266;-67
2021/12/22 02:36:21;;;;;;;28.88;17.20;;;;;;;;;;5094955;28;20189;-67
2021/12/22 02:38:51;;;;;;;43.53;16.67;;;;;;;;;;5094708;28;20185;-67
2021/12/22 02:41:20;;;;;;;24.25;14.90;;;;;;;;;;5094568;28;20277;-67
2021/12/22 02:43:49;;;;;;;30.58;16.65;;;;;;;;;;5094540;28;20194;-67
2021/12/22 02:46:18;;;;;;;30.67;16.02;;;;;;;;;;5095205;28;20270;-67
2021/12/22 02:48:45;;;;;;;30.45;17.27;;;;;;;;;;5095239;28;20228;-67
2021/12/22 02:51:12;;;;;;;30.80;16.38;;;;;;;;;;5094444;28;20280;-67
2021/12/22 02:53:44;;;;;;;38.88;17.58;;;;;;;;;;5094805;28;20757;-67
2021/12/22 02:56:28;;;;;;;30.27;16.70;;;;;;;;;;5094951;28;20186;-67
2021/12/22 02:59:02;;;;;;;28.90;16.50;;;;;;;;;;5094972;28;20201;-68
2021/12/22 03:01:53;;;;;;;36.92;17.58;;;;;;;;;;5094663;28;20192;-67
2021/12/22 03:04:21;;;;;;;37.58;17.30;;;;;;;;;;5094305;28;20255;-67
2021/12/22 03:06:54;;;;;;;29.23;15.70;;;;;;;;;;5094449;28;20190;-67
2021/12/22 03:09:24;;;;;;;51.58;15.82;;;;;;;;;;5094911;28;20269;-67
2021/12/22 03:11:53;;;;;;;31.55;16.60;;;;;;;;;;5094396;28;20201;-67
2021/12/22 03:14:21;;;;;;;29.70;16.95;;;;;;;;;;5094484;28;20315;-66
2021/12/22 03:16:49;;;;;;;27.60;15.40;;;;;;;;;;5055270;28;1123410;-66
2021/12/22 03:19:17;;;;;;;26.17;16.30;;;;;;;;;;5095362;28;20638;-66
2021/12/22 03:21:44;;;;;;;28.67;16.10;;;;;;;;;;5094895;28;20226;-66
2021/12/22 03:24:12;;;;;;;26.23;15.40;;;;;;;;;;5095329;28;20201;-66
2021/12/22 03:26:43;;;;;;;25.83;15.00;;;;;;;;;;5095601;28;20561;-66
2021/12/22 03:29:12;;;;;;;26.27;15.82;;;;;;;;;;5095173;28;20203;-66
2021/12/22 03:31:40;;;;;;;31.38;17.25;;;;;;;;;;5094997;28;20201;-66
2021/12/22 03:34:07;;;;;;;31.10;16.63;;;;;;;;;;5094432;28;20311;-66
2021/12/22 03:36:34;;;;;;;27.90;15.13;;;;;;;;;;5095074;28;20189;-66
2021/12/22 03:39:02;;;;;;;28.98;16.73;;;;;;;;;;5094506;28;20229;-66
2021/12/22 03:41:29;;;;;;;25.70;15.68;;;;;;;;;;5094836;28;20229;-66
2021/12/22 03:43:56;;;;;;;26.55;15.30;;;;;;;;;;5094816;28;20623;-66
2021/12/22 03:46:25;;;;;;;22.83;14.00;;;;;;;;;;5094781;28;20189;-66
2021/12/22 03:48:52;;;;;;;32.10;14.60;;;;;;;;;;5094374;28;20289;-65
2021/12/22 03:51:20;;;;;;;36.67;14.77;;;;;;;;;;5094697;28;20277;-65
2021/12/22 03:53:47;;;;;;;26.60;14.73;;;;;;;;;;5095311;28;20307;-65
2021/12/22 03:56:14;;;;;;;30.30;14.93;;;;;;;;;;5094234;28;20740;-66
2021/12/22 03:58:41;;;;;;;41.80;13.63;;;;;;;;;;5094269;28;20738;-65
2021/12/22 04:01:08;;;;;;;33.83;15.55;;;;;;;;;;5095045;28;20193;-65
2021/12/22 04:03:39;;;;;;;33.35;14.82;;;;;;;;;;5094406;28;20204;-65
2021/12/22 04:06:06;;;;;;;24.73;15.23;;;;;;;;;;5094113;28;20189;-65
2021/12/22 04:08:34;;;;;;;27.27;14.52;;;;;;;;;;5094539;28;20289;-65
2021/12/22 04:11:01;;;;;;;20.80;14.23;;;;;;;;;;5094290;28;20288;-65
2021/12/22 04:13:28;;;;;;;40.03;15.27;;;;;;;;;;5094067;28;20651;-65
2021/12/22 04:15:55;;;;;;;34.50;15.88;;;;;;;;;;5094074;28;20312;-66
2021/12/22 04:18:23;;;;;;;27.15;14.25;;;;;;;;;;5094181;28;20194;-65
2021/12/22 04:20:52;;;;;;;33.97;14.68;;;;;;;;;;5094129;28;20616;-66
2021/12/22 04:23:19;;;;;;;27.15;13.85;;;;;;;;;;5094283;28;20301;-66
2021/12/22 04:25:47;;;;;;;23.10;13.40;;;;;;;;;;5093766;28;20288;-66
2021/12/22 04:28:15;;;;;;;24.00;12.35;;;;;;;;;;5093712;28;20239;-65
2021/12/22 04:30:45;;;;;;;19.13;12.75;;;;;;;;;;5093678;28;20288;-66
2021/12/22 04:33:14;;;;;;;24.90;14.93;;;;;;;;;;5093987;28;20221;-66
2021/12/22 04:35:41;;;;;;;27.38;15.77;;;;;;;;;;5094116;28;20603;-65
2021/12/22 04:38:10;;;;;;;21.92;15.10;;;;;;;;;;5093964;28;20606;-65
2021/12/22 04:40:37;;;;;;;23.70;14.45;;;;;;;;;;5094009;28;20287;-65
2021/12/22 04:43:05;;;;;;;23.60;14.38;;;;;;;;;;5094288;28;20295;-65
2021/12/22 04:45:32;;;;;;;22.35;13.27;;;;;;;;;;5093274;28;20219;-65
2021/12/22 04:47:59;;;;;;;21.27;13.43;;;;;;;;;;5094103;28;20243;-65
2021/12/22 04:50:27;;;;;;;26.38;13.10;;;;;;;;;;5093632;28;20288;-65
2021/12/22 04:53:00;;;;;;;37.83;14.50;;;;;;;;;;5093271;28;20280;-66
2021/12/22 04:55:29;;;;;;;27.20;13.82;;;;;;;;;;5093749;28;20189;-66
2021/12/22 04:57:57;;;;;;;36.60;16.63;;;;;;;;;;5093467;28;20606;-65
2021/12/22 05:00:26;;;;;;;27.25;14.43;;;;;;;;;;5093261;28;20197;-69
2021/12/22 05:02:54;;;;;;;32.90;14.45;;;;;;;;;;5094183;28;20659;-66
2021/12/22 05:05:21;;;;;;;67.07;16.60;;;;;;;;;;5093565;28;20288;-65
2021/12/22 05:07:48;;;;;;;21.48;12.65;;;;;;;;;;5093558;28;20255;-66
2021/12/22 05:10:16;;;;;;;27.10;12.65;;;;;;;;;;5093197;28;20199;-66
2021/12/22 05:12:46;;;;;;;67.45;13.77;;;;;;;;;;5093729;28;20323;-66
2021/12/22 05:15:13;;;;;;;17.10;11.32;;;;;;;;;;5093470;28;20189;-65
2021/12/22 05:20:26;;;;;;;41.83;13.95;;;;;;;;;;5093346;28;20176;-65
2021/12/22 05:22:53;;;;;;;43.60;15.65;;;;;;;;;;5093399;28;20363;-65
2021/12/22 05:25:21;;;;;;;26.67;13.65;;;;;;;;;;5093513;28;20195;-66
2021/12/22 05:27:49;;;;;;;20.17;12.45;;;;;;;;;;5093250;28;20239;-66
2021/12/22 05:30:17;;;;;;;23.35;13.75;;;;;;;;;;5092887;28;20288;-66
2021/12/22 05:32:44;;;;;;;24.23;15.15;;;;;;;;;;5093696;28;20197;-66
2021/12/22 05:35:12;;;;;;;30.02;13.35;;;;;;;;;;5092878;28;20209;-66
2021/12/22 05:37:39;;;;;;;23.05;13.70;;;;;;;;;;5092515;28;20272;-66
2021/12/22 05:40:08;;;;;;;22.00;13.63;;;;;;;;;;5092914;28;20680;-65
2021/12/22 05:42:35;;;;;;;19.20;12.00;;;;;;;;;;5093107;28;20242;-65
2021/12/22 05:45:04;;;;;;;23.58;13.35;;;;;;;;;;5093478;28;20284;-65
2021/12/22 05:47:31;;;;;;;15.18;10.90;;;;;;;;;;5093270;28;20276;-66
2021/12/22 05:49:59;;;;;;;18.38;11.65;;;;;;;;;;5093174;28;20229;-66
2021/12/22 05:52:26;;;;;;;19.20;12.70;;;;;;;;;;5092790;28;20663;-66
2021/12/22 05:54:53;;;;;;;19.05;12.75;;;;;;;;;;5092872;28;20316;-66
2021/12/22 05:57:20;;;;;;;23.67;13.77;;;;;;;;;;5093332;28;20227;-66
2021/12/22 05:59:47;;;;;;;22.52;13.02;;;;;;;;;;5096523;28;20273;-65
2021/12/22 06:02:16;;;;;;;23.20;12.85;;;;;;;;;;5096375;28;20364;-66
2021/12/22 06:04:43;;;;;;;21.73;13.48;;;;;;;;;;5096349;28;20284;-65
2021/12/22 06:07:10;;;;;;;18.45;13.23;;;;;;;;;;5096537;28;20272;-65
2021/12/22 06:09:38;;;;;;;20.70;12.40;;;;;;;;;;5096243;28;20286;-65
2021/12/22 06:12:05;;;;;;;18.73;12.52;;;;;;;;;;5096600;28;20221;-65
2021/12/22 06:14:33;;;;;;;19.67;13.52;;;;;;;;;;5096601;28;20274;-66
2021/12/22 06:17:00;;;;;;;26.45;12.57;;;;;;;;;;5096922;28;20565;-66
2021/12/22 06:19:28;;;;;;;16.60;12.65;;;;;;;;;;5096137;28;20196;-66
2021/12/22 06:21:56;;;;;;;20.60;12.77;;;;;;;;;;5096132;28;20232;-66
2021/12/22 06:24:23;;;;;;;19.50;11.23;;;;;;;;;;5096359;28;20289;-66
2021/12/22 06:26:50;;;;;;;21.63;13.10;;;;;;;;;;5096293;28;20307;-65
2021/12/22 06:29:17;;;;;;;17.30;11.07;;;;;;;;;;5095896;28;20229;-65
2021/12/22 06:31:44;;;;;;;16.05;11.95;;;;;;;;;;5095878;28;20272;-65
2021/12/22 06:34:12;;;;;;;16.98;11.43;;;;;;;;;;5095638;28;20220;-65
2021/12/22 06:36:40;;;;;;;16.60;11.85;;;;;;;;;;5096059;28;20555;-66
2021/12/22 06:39:08;;;;;;;45.38;19.83;;;;;;;;;;5095974;28;20284;-66
2021/12/22 06:41:36;;;;;;;16.90;10.98;;;;;;;;;;5095684;28;20200;-73
2021/12/22 06:44:05;;;;;;;19.75;12.80;;;;;;;;;;5095834;28;20593;-64
2021/12/22 06:46:32;;;;;;;19.40;13.23;;;;;;;;;;5095919;28;20194;-64
2021/12/22 06:48:59;;;;;;;22.42;11.90;;;;;;;;;;5095869;28;20292;-64
2021/12/22 06:51:26;;;;;;;14.32;10.85;;;;;;;;;;5095800;28;20280;-64
2021/12/22 06:53:55;;;;;;;18.58;13.00;;;;;;;;;;5095132;28;20303;-64
2021/12/22 06:56:22;;;;;;;20.35;11.88;;;;;;;;;;5095678;28;20236;-63
2021/12/22 06:58:50;;;;;;;20.77;12.20;;;;;;;;;;5096400;28;20375;-65
2021/12/22 07:01:19;;;;;;;16.75;11.07;;;;;;;;;;5096152;28;20251;-63
2021/12/22 07:03:46;;;;;;;21.67;11.75;;;;;;;;;;5095589;28;20224;-64
2021/12/22 07:06:13;;;;;;;17.83;11.55;;;;;;;;;;5095196;28;20193;-64
2021/12/22 07:08:41;;;;;;;14.80;11.02;;;;;;;;;;5095072;28;20197;-64
2021/12/22 07:11:10;;;;;;;23.15;13.43;;;;;;;;;;5094321;28;20587;-64
2021/12/22 07:13:37;;;;;;;18.05;10.27;;;;;;;;;;5095173;28;20201;-64
2021/12/22 07:16:04;;;;;;;20.90;12.32;;;;;;;;;;5095307;28;20257;-65
2021/12/22 07:18:32;;;;;;;21.48;12.07;;;;;;;;;;5094904;28;20229;-64
2021/12/22 07:21:00;;;;;;;14.10;10.10;;;;;;;;;;5095170;28;20617;-63
2021/12/22 07:23:27;;;;;;;16.15;11.02;;;;;;;;;;5094848;28;20201;-64
2021/12/22 07:25:54;;;;;;;19.17;10.55;;;;;;;;;;5094760;28;20730;-64
2021/12/22 07:28:23;;;;;;;17.67;12.52;;;;;;;;;;5094717;28;20236;-64
2021/12/22 07:30:50;;;;;;;14.30;10.77;;;;;;;;;;5094986;28;20627;-64
2021/12/22 07:33:19;;;;;;;16.85;10.27;;;;;;;;;;5094514;28;20280;-64
2021/12/22 07:35:48;;;;;;;18.60;11.40;;;;;;;;;;5094754;28;20300;-64
2021/12/22 07:38:23;;;;;;;19.88;10.52;;;;;;;;;;5094499;28;20232;-65
2021/12/22 07:40:51;;;;;;;17.67;10.30;;;;;;;;;;5094840;28;20647;-64
2021/12/22 07:43:18;;;;;;;13.98;10.40;;;;;;;;;;5094363;28;20225;-64
2021/12/22 07:45:47;;;;;;;18.60;10.80;;;;;;;;;;5094930;28;20640;-64
2021/12/22 07:48:14;;;;;;;12.75;9.40;;;;;;;;;;5094681;28;20284;-64
2021/12/22 07:50:41;;;;;;;14.18;10.63;;;;;;;;;;5094305;28;20193;-64
2021/12/22 07:53:08;;;;;;;20.42;10.75;;;;;;;;;;5094146;28;20287;-64
2021/12/22 07:55:36;;;;;;;14.98;10.52;;;;;;;;;;5094077;28;20307;-63
2021/12/22 07:58:04;;;;;;;15.35;10.88;;;;;;;;;;5094831;28;20235;-64
2021/12/22 08:00:31;;;;;;;19.80;12.50;;;;;;;;;;5094068;28;20240;-64
2021/12/22 08:03:00;;;;;;;15.82;10.82;;;;;;;;;;5094075;28;20233;-64
2021/12/22 08:05:27;;;;;;;17.58;9.75;;;;;;;;;;5094333;28;20205;-64
2021/12/22 08:07:56;;;;;;;23.13;12.75;;;;;;;;;;5094636;28;20197;-64
2021/12/22 08:10:23;;;;;;;18.45;11.48;;;;;;;;;;5094246;28;20250;-64
2021/12/22 08:12:50;;;;;;;16.75;10.98;;;;;;;;;;5093923;28;20232;-64
2021/12/22 08:15:18;;;;;;;15.32;10.10;;;;;;;;;;5093914;28;20300;-64
2021/12/22 08:17:45;;;;;;;13.85;10.43;;;;;;;;;;5093871;28;20186;-63
2021/12/22 08:20:14;;;;;;;18.50;11.05;;;;;;;;;;5093769;28;20221;-64
2021/12/22 08:22:41;;;;;;;13.43;9.40;;;;;;;;;;5093538;28;20670;-64
2021/12/22 08:25:09;;;;;;;19.05;10.70;;;;;;;;;;5093903;28;20232;-64
2021/12/22 08:27:36;;;;;;;20.95;10.45;;;;;;;;;;5094149;28;20280;-63
2021/12/22 08:30:04;;;;;;;15.20;11.07;;;;;;;;;;5093596;28;20287;-64
2021/12/22 08:32:31;;;;;;;20.00;11.25;;;;;;;;;;5093501;28;20235;-63
2021/12/22 08:34:59;;;;;;;16.05;10.88;;;;;;;;;;5093450;28;20704;-64
2021/12/22 08:40:14;;;;;;;15.15;10.13;;;;;;;;;;5093801;28;20199;-64
2021/12/22 08:42:42;;;;;;;20.25;11.60;;;;;;;;;;5093671;28;20230;-63
2021/12/22 08:45:09;;;;;;;12.98;10.18;;;;;;;;;;5093378;28;20288;-63
2021/12/22 08:47:37;;;;;;;15.63;11.20;;;;;;;;;;5093212;28;20327;-63
2021/12/22 08:50:04;;;;;;;15.93;11.20;;;;;;;;;;5094182;28;20224;-64
2021/12/22 08:52:33;;;;;;;19.27;12.20;;;;;;;;;;5093254;28;20245;-64
2021/12/22 08:55:00;;;;;;;12.73;9.65;;;;;;;;;;5093599;28;20308;-64
2021/12/22 08:57:27;;;;;;;18.20;11.02;;;;;;;;;;5093923;28;20276;-64
2021/12/22 08:59:55;;;;;;;16.10;9.80;;;;;;;;;;5093207;28;20289;-64
2021/12/22 09:02:22;;;;;;;20.30;10.30;;;;;;;;;;5093487;28;20229;-63
2021/12/22 09:04:50;;;;;;;17.02;12.05;;;;;;;;;;5092977;28;20287;-64
2021/12/22 09:07:17;;;;;;;12.65;9.65;;;;;;;;;;5092734;28;20229;-64
2021/12/22 09:09:46;;;;;;;13.95;10.35;;;;;;;;;;5093034;28;20254;-65
2021/12/22 09:12:14;;;;;;;17.05;9.93;;;;;;;;;;5093330;28;20190;-64
2021/12/22 09:14:42;;;;;;;14.57;9.30;;;;;;;;;;5093799;28;20252;-65
2021/12/22 09:17:09;;;;;;;13.40;9.25;;;;;;;;;;5093335;28;20572;-65
2021/12/22 09:19:36;;;;;;;27.45;15.15;;;;;;;;;;5092764;28;20290;-65
2021/12/22 09:22:04;;;;;;;15.63;11.73;;;;;;;;;;5092982;28;20197;-64
2021/12/22 09:24:31;;;;;;;18.10;10.85;;;;;;;;;;5093781;28;20266;-63
2021/12/22 09:26:59;;;;;;;15.95;11.10;;;;;;;;;;5093710;28;20221;-64
2021/12/22 09:29:29;;;;;;;15.20;12.95;;;;;;;;;;5092765;28;20229;-64
2021/12/22 09:31:57;;;;;;;19.02;12.45;;;;;;;;;;5093361;28;20532;-64
2021/12/22 09:34:24;;;;;;;14.52;11.05;;;;;;;;;;5096178;28;20678;-64
2021/12/22 09:36:52;;;;;;;20.80;13.18;;;;;;;;;;5096791;28;20185;-63
2021/12/22 09:39:19;;;;;;;25.80;13.77;;;;;;;;;;5097138;28;20196;-64
2021/12/22 09:41:47;;;;;;;22.92;14.73;;;;;;;;;;5097033;28;20221;-64
2021/12/22 09:44:15;;;;;;;27.77;14.55;;;;;;;;;;5096790;28;20193;-64
2021/12/22 09:46:44;;;;;;;21.55;15.20;;;;;;;;;;5096923;28;20232;-64
2021/12/22 09:49:34;;;;;;;20.83;14.45;;;;;;;;;;5096876;28;20194;-64
2021/12/22 09:52:18;;;;;;;23.25;14.10;;;;;;;;;;5096856;28;20648;-63
2021/12/22 09:54:46;;;;;;;19.27;12.98;;;;;;;;;;5096395;28;20296;-64
2021/12/22 09:57:15;;;;;;;22.35;15.27;;;;;;;;;;5096308;28;20284;-64
2021/12/22 09:59:43;;;;;;;24.77;14.63;;;;;;;;;;5096153;28;20712;-65
2021/12/22 10:02:11;;;;;;;21.75;14.85;;;;;;;;;;5096359;28;20236;-64
2021/12/22 10:04:38;;;;;;;19.55;14.05;;;;;;;;;;5096727;28;20207;-64
2021/12/22 10:07:07;;;;;;;17.27;13.32;;;;;;;;;;5096348;28;20643;-64
2021/12/22 10:09:42;;;;;;;21.85;15.73;;;;;;;;;;5095944;28;20194;-64
2021/12/22 10:12:14;;;;;;;17.27;12.75;;;;;;;;;;5096114;28;20189;-64
2021/12/22 10:14:52;;;;;;;19.20;12.45;;;;;;;;;;5096654;28;20304;-64
2021/12/22 10:17:30;;;;;;;16.17;11.30;;;;;;;;;;5096452;28;20233;-64
2021/12/22 10:19:58;;;;;;;16.83;12.05;;;;;;;;;;5095859;28;20240;-64
2021/12/22 10:22:30;;;;;;;19.55;12.77;;;;;;;;;;5096157;28;20225;-64
2021/12/22 10:25:03;;;;;;;19.27;12.73;;;;;;;;;;5096663;28;20557;-64
2021/12/22 10:27:31;;;;;;;17.73;13.00;;;;;;;;;;5096493;28;20590;-64
2021/12/22 10:29:59;;;;;;;19.73;13.75;;;;;;;;;;5096386;28;20189;-64
2021/12/22 10:32:26;;;;;;;16.67;11.68;;;;;;;;;;5096243;28;20592;-64
2021/12/22 10:34:57;;;;;;;16.80;11.88;;;;;;;;;;5095881;28;20264;-64
2021/12/22 10:37:34;;;;;;;18.98;12.50;;;;;;;;;;5096178;28;20186;-65
2021/12/22 10:40:02;;;;;;;16.58;11.70;;;;;;;;;;5095747;28;20225;-64
2021/12/22 10:42:41;;;;;;;15.73;11.35;;;;;;;;;;5095793;28;20301;-64
2021/12/22 10:45:16;;;;;;;59.03;25.75;;;;;;;;;;5095145;28;20212;-64
2021/12/22 10:50:29;;;;;;;15.43;12.43;;;;;;;;;;5095281;28;20180;-64
2021/12/22 10:52:56;;;;;;;19.40;12.73;;;;;;;;;;5095631;28;20722;-64
2021/12/22 10:55:23;;;;;;;18.60;11.65;;;;;;;;;;5095510;28;20304;-65
2021/12/22 10:57:50;;;;;;;15.35;10.95;;;;;;;;;;5095768;28;20198;-64
2021/12/22 11:00:20;;;;;;;18.80;13.88;;;;;;;;;;5095229;28;20284;-63
2021/12/22 11:03:02;;;;;;;17.83;12.70;;;;;;;;;;5094971;28;20691;-64
2021/12/22 11:05:32;;;;;;;16.63;12.35;;;;;;;;;;5095930;28;20189;-64
2021/12/22 11:07:59;;;;;;;18.83;13.63;;;;;;;;;;5095333;28;20569;-65
2021/12/22 11:10:27;;;;;;;19.27;12.38;;;;;;;;;;5094967;28;20601;-65
2021/12/22 11:13:04;;;;;;;14.73;12.05;;;;;;;;;;5095288;28;20276;-65
2021/12/22 11:15:40;;;;;;;18.67;12.68;;;;;;;;;;5094384;28;20328;-65
2021/12/22 11:18:09;;;;;;;15.02;11.88;;;;;;;;;;5094914;28;20647;-66
2021/12/22 11:20:37;;;;;;;16.33;11.88;;;;;;;;;;5094790;28;20202;-65
2021/12/22 11:23:13;;;;;;;14.50;12.27;;;;;;;;;;5094969;28;20197;-65
2021/12/22 11:25:41;;;;;;;18.08;12.52;;;;;;;;;;5094759;28;20220;-65
2021/12/22 11:28:08;;;;;;;15.45;10.82;;;;;;;;;;5094823;28;20664;-66
2021/12/22 11:30:37;;;;;;;19.52;12.35;;;;;;;;;;5094507;28;20195;-66
2021/12/22 11:33:04;;;;;;;17.92;14.68;;;;;;;;;;5094950;28;20221;-65
2021/12/22 11:35:33;;;;;;;17.20;11.32;;;;;;;;;;5094771;28;20217;-65
2021/12/22 11:38:01;;;;;;;16.85;12.55;;;;;;;;;;5094534;28;20193;-65
2021/12/22 11:40:28;;;;;;;16.77;12.10;;;;;;;;;;5094513;28;20226;-66
2021/12/22 11:42:55;;;;;;;18.13;12.48;;;;;;;;;;5095245;28;20193;-67
2021/12/22 11:45:24;;;;;;;17.50;11.52;;;;;;;;;;5095031;28;20212;-66
2021/12/22 11:47:54;;;;;;;15.43;12.52;;;;;;;;;;5094425;28;20236;-65
2021/12/22 11:50:23;;;;;;;18.08;12.50;;;;;;;;;;5095129;28;20190;-65
2021/12/22 11:52:58;;;;;;;18.20;13.63;;;;;;;;;;5094703;28;20201;-66
2021/12/22 11:55:26;;;;;;;23.25;14.80;;;;;;;;;;5093853;28;20217;-65
2021/12/22 11:57:55;;;;;;;18.50;13.80;;;;;;;;;;5094668;28;20285;-66
2021/12/22 12:00:32;;;;;;;16.15;13.82;;;;;;;;;;5094174;28;20194;-66
2021/12/22 12:03:01;;;;;;;16.50;13.57;;;;;;;;;;5094038;28;20711;-66
2021/12/22 12:05:29;;;;;;;17.20;13.13;;;;;;;;;;5094065;28;20236;-66
2021/12/22 12:07:57;;;;;;;17.20;13.30;;;;;;;;;;5094171;28;20197;-65
2021/12/22 12:10:35;;;;;;;20.50;13.38;;;;;;;;;;5094248;28;20288;-65
2021/12/22 12:13:07;;;;;;;17.88;11.50;;;;;;;;;;5094484;28;20264;-64
2021/12/22 12:16:01;;;;;;;13.82;11.43;;;;;;;;;;5094410;28;20229;-64
2021/12/22 12:21:46;;;;;;;22.60;15.68;;;;;;;;;;5094164;28;20604;-65
2021/12/22 12:24:31;;;;;;;17.10;12.68;;;;;;;;;;5094906;28;20247;-66
2021/12/22 12:27:01;;;;;;;16.83;12.93;;;;;;;;;;5094062;28;20288;-65
2021/12/22 12:29:43;;;;;;;17.52;13.25;;;;;;;;;;5093684;28;20194;-65
2021/12/22 12:32:11;;;;;;;20.45;14.00;;;;;;;;;;5094157;28;20293;-65
2021/12/22 12:34:40;;;;;;;19.27;13.57;;;;;;;;;;5093605;28;20703;-65
2021/12/22 12:37:10;;;;;;;14.30;12.32;;;;;;;;;;5093451;28;20224;-66
2021/12/22 12:39:56;;;;;;;20.45;13.02;;;;;;;;;;5093825;28;20200;-66
2021/12/22 12:42:25;;;;;;;16.85;13.20;;;;;;;;;;5094169;28;20276;-65
2021/12/22 12:44:53;;;;;;;20.33;13.82;;;;;;;;;;5093863;28;20201;-65
2021/12/22 12:47:20;;;;;;;20.13;14.27;;;;;;;;;;5093397;28;20284;-65
2021/12/22 12:49:47;;;;;;;15.77;12.43;;;;;;;;;;5093547;28;20229;-65
2021/12/22 12:52:23;;;;;;;18.17;13.70;;;;;;;;;;5093533;28;20266;-65
2021/12/22 12:54:50;;;;;;;14.48;12.65;;;;;;;;;;5093799;28;20280;-65
2021/12/22 12:57:26;;;;;;;18.30;13.15;;;;;;;;;;5093591;28;20224;-65
2021/12/22 12:59:55;;;;;;;15.98;12.43;;;;;;;;;;5093227;28;20199;-65
2021/12/22 13:02:23;;;;;;;19.00;14.45;;;;;;;;;;5094006;28;20201;-65
2021/12/22 13:04:56;;;;;;;20.23;14.52;;;;;;;;;;5093067;28;20292;-65
2021/12/22 13:07:23;;;;;;;16.85;14.23;;;;;;;;;;5095697;28;20217;-65
2021/12/22 13:09:52;;;;;;;20.55;14.40;;;;;;;;;;5098308;28;20201;-65
2021/12/22 13:12:33;;;;;;;19.10;13.57;;;;;;;;;;5097142;28;20232;-64
2021/12/22 13:17:49;;;;;;;16.85;14.48;;;;;;;;;;5097555;28;20185;-65
2021/12/22 13:20:19;;;;;;;17.70;13.57;;;;;;;;;;5097592;28;20280;-65
2021/12/22 13:22:47;;;;;;;20.42;14.10;;;;;;;;;;5097753;28;20227;-65
2021/12/22 13:25:16;;;;;;;19.33;13.10;;;;;;;;;;5097071;28;20284;-72
2021/12/22 13:27:44;;;;;;;18.27;13.30;;;;;;;;;;5097099;28;20280;-66
2021/12/22 13:30:14;;;;;;;16.08;12.85;;;;;;;;;;5097306;28;20369;-69
2021/12/22 13:32:55;;;;;;;20.55;15.35;;;;;;;;;;5097215;28;20200;-69
2021/12/22 13:35:30;;;;;;;20.00;14.65;;;;;;;;;;5097463;28;20284;-69
2021/12/22 13:37:57;;;;;;;14.27;11.70;;;;;;;;;;5097384;28;20280;-68
2021/12/22 13:40:35;;;;;;;17.50;13.93;;;;;;;;;;5096251;28;20239;-68
2021/12/22 13:43:02;;;;;;;18.90;14.07;;;;;;;;;;5097204;28;20210;-68
2021/12/22 13:45:31;;;;;;;17.45;14.40;;;;;;;;;;5096673;28;20193;-68
2021/12/22 13:47:58;;;;;;;19.55;14.43;;;;;;;;;;5096920;28;20284;-68
2021/12/22 13:50:27;;;;;;;18.58;13.98;;;;;;;;;;5096955;28;20277;-68
2021/12/22 13:52:55;;;;;;;20.00;15.88;;;;;;;;;;5096931;28;20200;-69
2021/12/22 13:55:22;;;;;;;17.27;14.95;;;;;;;;;;5096504;28;20233;-68
2021/12/22 13:57:50;;;;;;;19.38;14.55;;;;;;;;;;5096367;28;20304;-68
2021/12/22 14:00:20;;;;;;;21.05;15.27;;;;;;;;;;5096403;28;20229;-68
2021/12/22 14:02:48;;;;;;;27.23;14.60;;;;;;;;;;5096382;28;20185;-68
2021/12/22 14:05:17;;;;;;;16.98;12.80;;;;;;;;;;5096974;28;20579;-68
2021/12/22 14:07:45;;;;;;;19.80;13.48;;;;;;;;;;5096659;28;20281;-69
2021/12/22 14:10:13;;;;;;;18.00;14.10;;;;;;;;;;5096024;28;20193;-68
2021/12/22 14:12:42;;;;;;;18.75;14.45;;;;;;;;;;5096192;28;20285;-68
2021/12/22 14:15:12;;;;;;;24.15;15.40;;;;;;;;;;5096748;28;20624;-68
2021/12/22 14:17:41;;;;;;;22.00;15.70;;;;;;;;;;5095832;28;20595;-68
2021/12/22 14:20:17;;;;;;;22.48;14.45;;;;;;;;;;5095659;28;20281;-68
2021/12/22 14:22:45;;;;;;;20.00;15.23;;;;;;;;;;5097028;28;20213;-68
2021/12/22 14:25:23;;;;;;;23.25;15.60;;;;;;;;;;5096566;28;20193;-68
2021/12/22 14:27:52;;;;;;;21.45;15.70;;;;;;;;;;5096607;28;20247;-68
2021/12/22 14:30:38;;;;;;;23.35;16.95;;;;;;;;;;5096188;28;20551;-68
2021/12/22 14:33:09;;;;;;;22.20;15.75;;;;;;;;;;5096530;28;20246;-68
2021/12/22 14:35:40;;;;;;;22.92;16.77;;;;;;;;;;5095698;28;20214;-68
2021/12/22 14:38:09;;;;;;;21.45;16.48;;;;;;;;;;5096211;28;20213;-68
2021/12/22 14:40:39;;;;;;;21.98;16.80;;;;;;;;;;5095442;28;20193;-68
2021/12/22 14:43:08;;;;;;;20.35;15.80;;;;;;;;;;5095692;28;20232;-68
2021/12/22 14:45:37;;;;;;;25.52;17.48;;;;;;;;;;5096066;28;20237;-68
2021/12/22 14:48:06;;;;;;;20.70;16.33;;;;;;;;;;5095780;28;20198;-68